createdAt,value
2018-12-13T00:02:08.967Z,60.24
2018-12-13T00:04:36.395Z,60.22
2018-12-13T00:07:03.809Z,60.35
2018-12-13T00:09:31.206Z,60.62
2018-12-13T00:11:58.624Z,60.89
2018-12-13T00:14:26.654Z,60.81
2018-12-13T00:16:54.094Z,60.84
2018-12-13T00:19:21.568Z,61.82
2018-12-13T00:21:48.999Z,62.24
2018-12-13T00:24:16.459Z,62.51
2018-12-13T00:26:43.989Z,62.48
2018-12-13T00:29:11.390Z,62.93
2018-12-13T00:31:38.820Z,62.79
2018-12-13T00:34:06.278Z,62.73
2018-12-13T00:36:39.508Z,62.79
2018-12-13T00:39:01.170Z,62.46
2018-12-13T00:41:28.566Z,62.40
2018-12-13T00:43:56.030Z,62.59
2018-12-13T00:46:23.444Z,62.57
2018-12-13T00:48:51.121Z,62.54
2018-12-13T00:51:18.517Z,62.59
2018-12-13T00:53:45.936Z,62.75
2018-12-13T00:56:13.372Z,62.88
2018-12-13T00:58:40.771Z,62.91
2018-12-13T01:01:08.235Z,62.77
2018-12-13T01:03:35.725Z,62.73
2018-12-13T01:06:03.152Z,62.81
2018-12-13T01:08:30.607Z,62.36
2018-12-13T01:10:58.147Z,62.24
2018-12-13T01:13:25.611Z,62.21
2018-12-13T01:15:53.026Z,62.09
2018-12-13T01:18:20.418Z,62.44
2018-12-13T01:20:47.828Z,62.38
2018-12-13T01:23:15.324Z,62.38
2018-12-13T01:25:42.731Z,62.33
2018-12-13T01:28:10.263Z,62.63
2018-12-13T01:30:37.675Z,62.41
2018-12-13T01:33:05.080Z,62.24
2018-12-13T01:35:32.490Z,62.17
2018-12-13T01:38:00.137Z,61.85
2018-12-13T01:40:28.100Z,61.22
2018-12-13T01:42:55.507Z,61.14
2018-12-13T01:45:22.904Z,60.87
2018-12-13T01:47:50.586Z,59.55
2018-12-13T01:50:17.995Z,59.13
2018-12-13T01:52:45.407Z,59.37
2018-12-13T01:55:13.135Z,59.12
2018-12-13T01:57:40.547Z,58.92
2018-12-13T02:00:07.941Z,58.87
2018-12-13T02:02:35.364Z,59.30
2018-12-13T02:05:02.848Z,59.65
2018-12-13T02:07:30.252Z,59.96
2018-12-13T02:09:57.646Z,59.78
2018-12-13T02:12:25.060Z,59.73
2018-12-13T02:14:53.079Z,59.43
2018-12-13T02:17:21.054Z,59.88
2018-12-13T02:19:48.467Z,60.44
2018-12-13T02:22:15.936Z,60.74
2018-12-13T02:24:43.498Z,60.99
2018-12-13T02:27:10.923Z,61.20
2018-12-13T02:29:38.412Z,60.77
2018-12-13T02:32:05.814Z,60.70
2018-12-13T02:34:33.493Z,60.60
2018-12-13T02:37:06.080Z,60.90
2018-12-13T02:39:28.500Z,60.86
2018-12-13T02:41:55.922Z,60.25
2018-12-13T02:44:23.314Z,60.21
2018-12-13T02:46:50.741Z,60.16
2018-12-13T02:49:18.666Z,60.34
2018-12-13T02:51:46.064Z,60.49
2018-12-13T02:54:13.461Z,60.58
2018-12-13T02:56:40.902Z,60.94
2018-12-13T02:59:08.315Z,61.54
2018-12-13T03:01:35.702Z,61.83
2018-12-13T03:04:03.128Z,62.29
2018-12-13T03:06:30.751Z,62.26
2018-12-13T03:08:58.161Z,62.15
2018-12-13T03:11:25.574Z,62.36
2018-12-13T03:13:53.023Z,62.25
2018-12-13T03:16:20.548Z,62.46
2018-12-13T03:18:47.973Z,62.61
2018-12-13T03:21:15.431Z,62.69
2018-12-13T03:23:42.984Z,62.71
2018-12-13T03:26:10.559Z,62.49
2018-12-13T03:28:37.998Z,62.15
2018-12-13T03:31:05.404Z,61.85
2018-12-13T03:33:32.867Z,61.61
2018-12-13T03:36:00.294Z,61.60
2018-12-13T03:38:27.719Z,61.54
2018-12-13T03:40:55.135Z,61.26
2018-12-13T03:43:22.633Z,61.28
2018-12-13T03:45:50.028Z,61.48
2018-12-13T03:48:17.446Z,61.76
2018-12-13T03:50:45.160Z,61.95
2018-12-13T03:53:12.674Z,62.20
2018-12-13T03:55:40.084Z,61.95
2018-12-13T03:58:08.065Z,61.97
2018-12-13T04:00:35.503Z,62.03
2018-12-13T04:03:02.929Z,62.72
2018-12-13T04:05:30.386Z,62.51
2018-12-13T04:07:58.571Z,62.18
2018-12-13T04:10:25.966Z,62.48
2018-12-13T04:12:53.398Z,62.60
2018-12-13T04:15:20.803Z,62.51
2018-12-13T04:17:48.216Z,62.72
2018-12-13T04:20:15.616Z,62.64
2018-12-13T04:22:43.059Z,62.39
2018-12-13T04:25:10.494Z,62.02
2018-12-13T04:27:37.907Z,62.31
2018-12-13T04:30:05.313Z,62.22
2018-12-13T04:32:33.583Z,62.23
2018-12-13T04:35:00.991Z,62.58
2018-12-13T04:37:35.076Z,61.79
2018-12-13T04:39:55.833Z,62.21
2018-12-13T04:42:23.268Z,61.94
2018-12-13T04:44:50.711Z,62.35
2018-12-13T04:47:18.124Z,62.11
2018-12-13T04:49:45.533Z,61.80
2018-12-13T04:52:12.946Z,62.03
2018-12-13T04:54:40.356Z,62.38
2018-12-13T04:57:07.777Z,62.40
2018-12-13T04:59:35.231Z,62.36
2018-12-13T05:02:02.647Z,62.19
2018-12-13T05:04:30.044Z,62.04
2018-12-13T05:06:57.914Z,61.55
2018-12-13T05:09:26.101Z,61.61
2018-12-13T05:11:53.563Z,62.51
2018-12-13T05:14:21.084Z,62.42
2018-12-13T05:16:48.500Z,62.02
2018-12-13T05:19:15.931Z,61.80
2018-12-13T05:21:43.358Z,61.76
2018-12-13T05:24:10.793Z,61.83
2018-12-13T05:26:38.272Z,61.93
2018-12-13T05:29:05.645Z,62.24
2018-12-13T05:31:33.238Z,62.02
2018-12-13T05:34:00.649Z,61.93
2018-12-13T05:36:28.485Z,62.25
2018-12-13T05:38:55.907Z,62.18
2018-12-13T05:41:23.320Z,61.88
2018-12-13T05:43:50.756Z,62.02
2018-12-13T05:46:18.178Z,61.67
2018-12-13T05:48:45.610Z,61.89
2018-12-13T05:51:13.043Z,62.11
2018-12-13T05:53:40.426Z,62.44
2018-12-13T05:56:08.678Z,62.53
2018-12-13T05:58:36.120Z,62.31
2018-12-13T06:01:03.573Z,62.14
2018-12-13T06:03:30.983Z,62.26
2018-12-13T06:05:58.443Z,62.24
2018-12-13T06:08:25.871Z,62.18
2018-12-13T06:10:53.295Z,62.73
2018-12-13T06:13:20.781Z,62.69
2018-12-13T06:15:48.213Z,62.68
2018-12-13T06:18:15.634Z,62.77
2018-12-13T06:20:43.075Z,63.04
2018-12-13T06:23:10.502Z,62.93
2018-12-13T06:25:37.887Z,62.89
2018-12-13T06:28:05.337Z,62.98
2018-12-13T06:30:32.820Z,62.94
2018-12-13T06:33:00.308Z,63.01
2018-12-13T06:35:27.751Z,63.01
2018-12-13T06:38:01.068Z,63.20
2018-12-13T06:40:22.564Z,63.23
2018-12-13T06:42:50.023Z,63.10
2018-12-13T06:45:17.479Z,63.80
2018-12-13T06:47:44.890Z,63.65
2018-12-13T06:50:12.700Z,64.09
2018-12-13T06:52:40.106Z,63.54
2018-12-13T06:55:07.519Z,63.14
2018-12-13T06:57:34.949Z,62.93
2018-12-13T07:00:02.379Z,62.58
2018-12-13T07:02:29.890Z,62.62
2018-12-13T07:04:57.276Z,62.73
2018-12-13T07:07:24.711Z,63.01
2018-12-13T07:09:52.190Z,62.80
2018-12-13T07:12:19.598Z,62.62
2018-12-13T07:14:47.024Z,62.31
2018-12-13T07:17:14.462Z,62.92
2018-12-13T07:19:41.881Z,63.67
2018-12-13T07:22:10.093Z,63.27
2018-12-13T07:24:37.623Z,62.59
2018-12-13T07:27:05.061Z,62.67
2018-12-13T07:29:32.464Z,63.36
2018-12-13T07:31:59.884Z,63.00
2018-12-13T07:34:27.354Z,62.56
2018-12-13T07:36:54.766Z,62.10
2018-12-13T07:39:22.766Z,62.03
2018-12-13T07:41:50.215Z,62.07
2018-12-13T07:44:17.629Z,62.48
2018-12-13T07:46:45.169Z,62.28
2018-12-13T07:49:13.503Z,62.21
2018-12-13T07:51:41.057Z,61.50
2018-12-13T07:54:08.463Z,61.41
2018-12-13T07:56:35.916Z,61.50
2018-12-13T07:59:03.317Z,61.16
2018-12-13T08:01:30.775Z,61.52
2018-12-13T08:03:58.195Z,61.23
2018-12-13T08:06:26.509Z,61.56
2018-12-13T08:08:54.808Z,61.80
2018-12-13T08:11:22.235Z,61.16
2018-12-13T08:13:50.207Z,61.20
2018-12-13T08:16:17.645Z,61.81
2018-12-13T08:18:45.098Z,61.86
2018-12-13T08:21:12.626Z,61.59
2018-12-13T08:23:40.061Z,61.38
2018-12-13T08:26:07.553Z,60.94
2018-12-13T08:28:35.052Z,61.86
2018-12-13T08:31:02.535Z,61.16
2018-12-13T08:33:29.937Z,60.44
2018-12-13T08:35:57.346Z,60.52
2018-12-13T08:38:27.421Z,60.59
2018-12-13T08:40:53.208Z,60.27
2018-12-13T08:43:21.331Z,60.51
2018-12-13T08:45:48.857Z,60.41
2018-12-13T08:48:16.387Z,60.50
2018-12-13T08:50:43.842Z,60.53
2018-12-13T08:53:11.268Z,60.83
2018-12-13T08:55:38.690Z,60.44
2018-12-13T08:58:06.090Z,60.09
2018-12-13T09:00:33.498Z,59.82
2018-12-13T09:03:01.819Z,59.39
2018-12-13T09:05:29.245Z,59.10
2018-12-13T09:07:56.655Z,59.01
2018-12-13T09:10:24.074Z,58.81
2018-12-13T09:12:51.487Z,58.32
2018-12-13T09:15:19.816Z,57.95
2018-12-13T09:17:46.322Z,57.07
2018-12-13T09:20:13.749Z,56.17
2018-12-13T09:22:41.210Z,55.83
2018-12-13T09:25:08.569Z,55.69
2018-12-13T09:27:36.049Z,55.09
2018-12-13T09:30:03.870Z,53.42
2018-12-13T09:32:31.279Z,52.54
2018-12-13T09:34:58.692Z,52.99
2018-12-13T09:37:26.121Z,52.15
2018-12-13T09:39:53.536Z,49.63
2018-12-13T09:42:21.317Z,47.23
2018-12-13T09:44:48.299Z,46.43
2018-12-13T09:47:15.245Z,44.71
2018-12-13T09:49:42.240Z,43.95
2018-12-13T09:52:10.070Z,44.12
2018-12-13T09:54:37.067Z,42.81
2018-12-13T09:57:04.116Z,43.80
2018-12-13T09:59:31.129Z,44.08
2018-12-13T10:01:58.532Z,44.98
2018-12-13T10:04:26.019Z,44.01
2018-12-13T10:06:53.124Z,42.55
2018-12-13T10:09:20.142Z,41.42
2018-12-13T10:11:47.101Z,41.46
2018-12-13T10:14:14.547Z,43.74
2018-12-13T10:16:41.511Z,46.16
2018-12-13T10:19:08.975Z,47.76
2018-12-13T10:21:35.919Z,47.53
2018-12-13T10:24:02.870Z,48.34
2018-12-13T10:26:29.813Z,48.04
2018-12-13T10:28:57.258Z,46.75
2018-12-13T10:31:24.683Z,44.83
2018-12-13T10:33:52.204Z,43.54
2018-12-13T10:36:19.254Z,42.11
2018-12-13T10:38:52.797Z,43.18
2018-12-13T10:41:14.048Z,44.37
2018-12-13T10:43:41.518Z,43.57
2018-12-13T10:46:08.466Z,42.85
2018-12-13T10:48:35.411Z,43.61
2018-12-13T10:51:02.827Z,45.13
2018-12-13T10:53:30.278Z,45.52
2018-12-13T10:55:57.215Z,43.66
2018-12-13T10:58:24.175Z,41.76
2018-12-13T11:03:47.757Z,39.91
2018-12-13T11:06:15.228Z,42.50
2018-12-13T11:08:42.661Z,43.37
2018-12-13T11:11:09.595Z,41.24
2018-12-13T11:13:36.712Z,40.25
2018-12-13T11:16:04.212Z,39.44
2018-12-13T11:18:31.370Z,38.70
2018-12-13T11:21:01.089Z,36.06
2018-12-13T11:23:28.531Z,34.85
2018-12-13T11:25:56.013Z,33.23
2018-12-13T11:31:23.656Z,30.89
2018-12-13T11:33:51.085Z,30.88
2018-12-13T11:36:19.692Z,33.25
2018-12-13T11:38:47.163Z,34.70
2018-12-13T11:41:14.640Z,35.34
2018-12-13T11:43:42.059Z,35.92
2018-12-13T11:46:09.607Z,37.36
2018-12-13T11:48:37.022Z,37.41
2018-12-13T11:51:04.412Z,38.68
2018-12-13T11:53:31.890Z,38.66
2018-12-13T11:55:59.294Z,40.10
2018-12-13T11:58:26.746Z,39.96
2018-12-13T12:00:54.314Z,41.77
2018-12-13T12:03:21.739Z,42.04
2018-12-13T12:05:49.221Z,40.66
2018-12-13T12:08:16.647Z,41.02
2018-12-13T12:10:44.911Z,41.81
2018-12-13T12:13:12.499Z,42.59
2018-12-13T12:15:39.948Z,43.04
2018-12-13T12:18:08.315Z,40.78
2018-12-13T12:20:35.711Z,37.04
2018-12-13T12:23:04.955Z,33.85
2018-12-13T12:25:32.387Z,31.82
2018-12-13T12:28:00.370Z,30.40
2018-12-13T12:30:27.802Z,30.19
2018-12-13T12:32:55.340Z,29.51
2018-12-13T12:35:23.156Z,29.41
2018-12-13T12:37:50.622Z,29.79
2018-12-13T12:40:18.136Z,29.81
2018-12-13T12:42:47.385Z,29.95
2018-12-13T12:45:14.854Z,30.74
2018-12-13T12:47:42.332Z,31.69
2018-12-13T12:50:09.722Z,34.07
2018-12-13T12:52:37.125Z,38.13
2018-12-13T12:55:05.275Z,41.67
2018-12-13T12:57:33.036Z,43.42
2018-12-13T13:00:00.478Z,43.65
2018-12-13T13:02:27.889Z,43.41
2018-12-13T13:04:55.332Z,43.08
2018-12-13T13:07:22.777Z,42.80
2018-12-13T13:09:50.240Z,43.65
2018-12-13T13:12:17.644Z,44.05
2018-12-13T13:14:45.766Z,44.64
2018-12-13T13:17:13.920Z,44.91
2018-12-13T13:19:41.366Z,45.04
2018-12-13T13:22:09.375Z,45.35
2018-12-13T13:24:37.462Z,45.50
2018-12-13T13:27:05.728Z,46.26
2018-12-13T13:29:33.333Z,46.74
2018-12-13T13:32:00.763Z,46.85
2018-12-13T13:34:28.238Z,46.68
2018-12-13T13:36:55.752Z,46.89
2018-12-13T13:39:23.732Z,47.68
2018-12-13T13:41:51.132Z,47.82
2018-12-13T13:44:19.332Z,48.03
2018-12-13T13:46:48.202Z,48.31
2018-12-13T13:49:15.649Z,48.35
2018-12-13T13:51:43.141Z,48.38
2018-12-13T13:54:10.655Z,49.08
2018-12-13T13:56:38.066Z,49.18
2018-12-13T13:59:05.612Z,48.60
2018-12-13T14:01:33.019Z,48.85
2018-12-13T14:04:00.475Z,49.92
2018-12-13T14:06:27.920Z,49.21
2018-12-13T14:08:55.331Z,49.27
2018-12-13T14:11:22.852Z,49.52
2018-12-13T14:13:50.227Z,49.63
2018-12-13T14:16:17.644Z,50.12
2018-12-13T14:18:45.040Z,49.63
2018-12-13T14:21:12.616Z,49.74
2018-12-13T14:23:40.033Z,49.96
2018-12-13T14:26:07.475Z,49.98
2018-12-13T14:28:34.921Z,50.52
2018-12-13T14:31:02.490Z,50.63
2018-12-13T14:33:29.912Z,50.82
2018-12-13T14:35:57.459Z,51.04
2018-12-13T14:38:24.956Z,51.49
2018-12-13T14:40:52.513Z,51.35
2018-12-13T14:43:19.996Z,51.14
2018-12-13T14:45:48.023Z,51.21
2018-12-13T14:48:15.440Z,51.28
2018-12-13T14:50:43.861Z,51.61
2018-12-13T14:53:11.288Z,51.52
2018-12-13T14:55:38.750Z,51.99
2018-12-13T14:58:06.150Z,52.20
2018-12-13T15:00:33.661Z,52.15
2018-12-13T15:03:01.156Z,52.08
2018-12-13T15:05:28.554Z,51.85
2018-12-13T15:07:56.874Z,52.33
2018-12-13T15:10:24.477Z,52.31
2018-12-13T15:12:51.939Z,52.63
2018-12-13T15:15:19.443Z,52.51
2018-12-13T15:17:46.851Z,52.13
2018-12-13T15:20:14.303Z,52.28
2018-12-13T15:22:41.724Z,53.29
2018-12-13T15:25:09.656Z,52.63
2018-12-13T15:27:37.081Z,52.84
2018-12-13T15:30:04.512Z,53.61
2018-12-13T15:32:32.819Z,54.33
2018-12-13T15:35:00.214Z,53.95
2018-12-13T15:37:27.626Z,53.89
2018-12-13T15:39:57.329Z,54.51
2018-12-13T15:42:22.835Z,54.72
2018-12-13T15:44:50.250Z,54.99
2018-12-13T15:47:17.668Z,53.92
2018-12-13T15:49:45.247Z,54.19
2018-12-13T15:52:12.689Z,53.79
2018-12-13T15:54:40.115Z,53.54
2018-12-13T15:57:07.541Z,53.54
2018-12-13T15:59:35.015Z,53.27
2018-12-13T16:02:02.428Z,52.91
2018-12-13T16:04:30.561Z,52.99
2018-12-13T16:06:58.407Z,53.10
2018-12-13T16:09:25.873Z,53.72
2018-12-13T16:11:53.253Z,53.24
2018-12-13T16:14:21.551Z,53.38
2018-12-13T16:16:49.046Z,53.70
2018-12-13T16:19:16.754Z,52.53
2018-12-13T16:21:44.158Z,52.45
2018-12-13T16:24:11.566Z,52.62
2018-12-13T16:26:39.127Z,52.29
2018-12-13T16:29:06.601Z,52.54
2018-12-13T16:31:34.231Z,52.54
2018-12-13T16:34:01.642Z,52.71
2018-12-13T16:36:29.144Z,53.06
2018-12-13T16:38:56.630Z,52.87
2018-12-13T16:41:24.079Z,52.56
2018-12-13T16:43:51.675Z,53.28
2018-12-13T16:46:19.100Z,54.46
2018-12-13T16:48:46.692Z,53.78
2018-12-13T16:51:14.141Z,54.11
2018-12-13T16:53:41.565Z,54.59
2018-12-13T16:56:09.088Z,54.97
2018-12-13T16:58:36.500Z,55.34
2018-12-13T17:01:04.010Z,55.63
2018-12-13T17:03:37.158Z,55.64
2018-12-13T17:06:04.553Z,55.58
2018-12-13T17:08:31.984Z,55.43
2018-12-13T17:10:59.401Z,55.18
2018-12-13T17:13:26.927Z,55.51
2018-12-13T17:15:54.583Z,56.06
2018-12-13T17:18:22.274Z,55.62
2018-12-13T17:20:49.696Z,55.32
2018-12-13T17:23:17.148Z,55.13
2018-12-13T17:25:44.551Z,54.62
2018-12-13T17:28:12.253Z,54.55
2018-12-13T17:30:39.925Z,54.88
2018-12-13T17:33:07.428Z,54.78
2018-12-13T17:35:34.831Z,54.95
2018-12-13T17:38:02.436Z,55.34
2018-12-13T17:40:29.843Z,55.66
2018-12-13T17:42:57.799Z,54.85
2018-12-13T17:45:25.245Z,54.50
2018-12-13T17:47:52.737Z,54.71
2018-12-13T17:50:20.470Z,54.45
2018-12-13T17:52:47.882Z,53.85
2018-12-13T17:55:15.384Z,53.94
2018-12-13T17:57:42.819Z,53.71
2018-12-13T18:00:10.298Z,53.87
2018-12-13T18:02:37.803Z,53.87
2018-12-13T18:05:06.024Z,54.71
2018-12-13T18:07:33.447Z,54.77
2018-12-13T18:10:00.871Z,54.64
2018-12-13T18:12:29.057Z,54.94
2018-12-13T18:14:56.496Z,56.74
2018-12-13T18:17:24.167Z,58.29
2018-12-13T18:19:52.119Z,59.10
2018-12-13T18:22:19.628Z,60.37
2018-12-13T18:24:47.147Z,61.21
2018-12-13T18:27:15.507Z,61.57
2018-12-13T18:29:42.906Z,61.59
2018-12-13T18:32:10.378Z,61.47
2018-12-13T18:34:38.201Z,61.34
2018-12-13T18:37:05.765Z,61.75
2018-12-13T18:39:33.186Z,62.16
2018-12-13T18:42:00.697Z,62.16
2018-12-13T18:44:28.169Z,62.14
2018-12-13T18:46:55.589Z,62.12
2018-12-13T18:49:23.107Z,62.08
2018-12-13T18:51:50.562Z,62.53
2018-12-13T18:54:17.995Z,62.89
2018-12-13T18:56:45.476Z,62.71
2018-12-13T18:59:12.932Z,62.50
2018-12-13T19:01:40.495Z,62.55
2018-12-13T19:04:07.899Z,62.63
2018-12-13T19:06:35.584Z,63.06
2018-12-13T19:09:03.206Z,63.26
2018-12-13T19:11:30.650Z,63.14
2018-12-13T19:13:58.193Z,62.87
2018-12-13T19:16:25.651Z,62.78
2018-12-13T19:18:53.063Z,62.85
2018-12-13T19:21:21.038Z,62.95
2018-12-13T19:23:48.452Z,62.53
2018-12-13T19:26:15.848Z,62.24
2018-12-13T19:28:43.278Z,62.04
2018-12-13T19:31:10.836Z,62.08
2018-12-13T19:33:38.761Z,61.81
2018-12-13T19:36:06.190Z,62.06
2018-12-13T19:38:33.739Z,62.40
2018-12-13T19:41:01.199Z,62.62
2018-12-13T19:43:28.923Z,62.68
2018-12-13T19:45:56.375Z,62.81
2018-12-13T19:48:23.788Z,62.74
2018-12-13T19:50:51.509Z,62.41
2018-12-13T19:53:19.706Z,62.43
2018-12-13T19:55:47.242Z,62.74
2018-12-13T19:58:14.681Z,62.56
2018-12-13T20:00:42.114Z,62.15
2018-12-13T20:03:10.739Z,62.01
2018-12-13T20:05:38.155Z,61.83
2018-12-13T20:08:07.401Z,61.74
2018-12-13T20:10:34.813Z,62.00
2018-12-13T20:13:02.319Z,61.96
2018-12-13T20:15:29.755Z,61.59
2018-12-13T20:17:57.182Z,61.47
2018-12-13T20:20:24.704Z,61.69
2018-12-13T20:22:53.673Z,61.91
2018-12-13T20:25:21.084Z,61.94
2018-12-13T20:27:48.599Z,62.02
2018-12-13T20:30:16.073Z,61.91
2018-12-13T20:32:43.488Z,62.17
2018-12-13T20:35:10.990Z,62.66
2018-12-13T20:37:38.483Z,62.82
2018-12-13T20:40:05.903Z,62.91
2018-12-13T20:42:33.305Z,62.79
2018-12-13T20:45:00.713Z,62.79
2018-12-13T20:47:28.139Z,62.77
2018-12-13T20:49:55.542Z,62.64
2018-12-13T20:52:22.986Z,62.42
2018-12-13T20:54:50.408Z,62.17
2018-12-13T20:57:18.639Z,62.20
2018-12-13T20:59:46.037Z,62.11
2018-12-13T21:02:13.547Z,61.62
2018-12-13T21:04:40.979Z,61.46
2018-12-13T21:07:14.160Z,61.50
2018-12-13T21:09:41.641Z,61.30
2018-12-13T21:12:09.048Z,61.11
2018-12-13T21:14:36.509Z,60.92
2018-12-13T21:17:03.915Z,60.92
2018-12-13T21:19:31.379Z,61.04
2018-12-13T21:21:58.818Z,61.68
2018-12-13T21:24:26.232Z,61.71
2018-12-13T21:26:53.693Z,61.50
2018-12-13T21:29:21.141Z,61.34
2018-12-13T21:31:49.432Z,61.42
2018-12-13T21:34:16.936Z,60.92
2018-12-13T21:36:45.143Z,60.52
2018-12-13T21:39:12.565Z,60.49
2018-12-13T21:41:40.121Z,60.53
2018-12-13T21:44:07.514Z,60.97
2018-12-13T21:46:35.065Z,60.53
2018-12-13T21:49:02.473Z,60.42
2018-12-13T21:51:29.879Z,60.54
2018-12-13T21:53:57.287Z,60.89
2018-12-13T21:56:24.786Z,61.02
2018-12-13T21:58:52.253Z,60.71
2018-12-13T22:01:21.400Z,60.19
2018-12-13T22:03:49.472Z,60.42
2018-12-13T22:06:16.875Z,60.52
2018-12-13T22:08:44.301Z,60.43
2018-12-13T22:11:12.701Z,60.07
2018-12-13T22:13:40.118Z,60.55
2018-12-13T22:16:07.523Z,60.41
2018-12-13T22:18:35.114Z,60.38
2018-12-13T22:21:02.592Z,60.41
2018-12-13T22:23:29.991Z,60.53
2018-12-13T22:25:57.601Z,60.60
2018-12-13T22:28:25.138Z,60.77
2018-12-13T22:30:52.539Z,60.99
2018-12-13T22:33:20.179Z,60.99
2018-12-13T22:35:47.579Z,61.19
2018-12-13T22:38:15.505Z,61.54
2018-12-13T22:40:42.963Z,60.71
2018-12-13T22:43:10.655Z,60.52
2018-12-13T22:45:38.054Z,60.37
2018-12-13T22:48:05.480Z,60.18
2018-12-13T22:50:32.919Z,60.41
2018-12-13T22:53:00.403Z,60.46
2018-12-13T22:55:27.797Z,60.76
2018-12-13T22:57:55.218Z,60.84
2018-12-13T23:00:22.667Z,60.88
2018-12-13T23:02:50.064Z,60.77
2018-12-13T23:05:17.497Z,60.83
2018-12-13T23:07:44.940Z,61.05
2018-12-13T23:10:12.345Z,61.33
2018-12-13T23:12:39.793Z,61.66
2018-12-13T23:15:07.249Z,62.03
2018-12-13T23:17:34.673Z,61.13
2018-12-13T23:20:02.109Z,61.67
2018-12-13T23:22:29.549Z,61.78
2018-12-13T23:24:56.950Z,61.91
2018-12-13T23:27:24.670Z,61.76
2018-12-13T23:29:52.102Z,61.76
2018-12-13T23:32:19.498Z,61.71
2018-12-13T23:34:47.708Z,61.50
2018-12-13T23:37:15.116Z,61.33
2018-12-13T23:39:42.622Z,61.14
2018-12-13T23:42:10.143Z,61.24
2018-12-13T23:44:37.573Z,61.25
2018-12-13T23:47:05.936Z,61.24
2018-12-13T23:49:33.333Z,61.15
2018-12-13T23:52:00.750Z,61.11
2018-12-13T23:54:28.158Z,61.01
2018-12-13T23:56:55.588Z,60.87
2018-12-13T23:59:23.024Z,61.35
